Impacts TAF Board
For situational awareness. Not to be used for flight planning purposes.
IDs:

KSEA - Seattle-Tacoma Intl, WA, US

Issued at 1227 UTC 10 Jul 2020
Updated at 1244 UTC 10 Jul 2020
Potential Impact None Slight Moderate High
Time1220Z 10/13Z 10/14Z 10/15Z 10/16Z 10/17Z 10/18Z 10/19Z 10/20Z 10/21Z 10/22Z 10/23Z 11/00Z 11/01Z>>
Type OBS PRVL PRVL PRVL PRVL PRVL PRVL PRVL PRVL PRVL PRVL PRVL PRVL PRVL
VIS 10 >6 >6 >6 >6 >6 >6 >6 >6 >6 >6 >6 >6 >6
CIG 28 27 27 27 27 27 27 -- -- -- -- -- -- --
Cover OVC OVC OVC OVC OVC OVC OVC SCT SCT SCT SCT SCT SCT SCT
FltCat MVFR MVFR MVFR MVFR MVFR MVFR MVFR VFR VFR VFR VFR VFR VFR VFR
WX -- -- -- -- -- -- -- -- -- -- -- -- -- --
WDir 200 180 180 180 180 180 180 260 260 260 260 260 260 260
WSpd 3 5 5 5 5 5 5 6 6 6 6 6 6 6
WGst -- -- -- -- -- -- -- -- -- -- -- -- -- --
Raw TAF
KSEA 101227Z 1012/1118 18005KT P6SM OVC027
  FM101900 26006KT P6SM SCT035 SCT200
  FM110400 36006KT P6SM SKC
  FM110800 VRB03KT P6SM SKC


Raw METAR
KSEA 101220Z 20003KT 10SM BKN028 OVC045 13/11 A3014 RMK AO2 T01330106
KSEA 101153Z 00000KT 10SM SCT030 BKN037 13/10 A3013 RMK AO2 SLP209 70001 T01280100 10156 20122 53012
KSEA 101053Z 00000KT 10SM SCT039 SCT050 13/11 A3012 RMK AO2 SLP204 T01280106
KSEA 100953Z 20003KT 10SM SCT050 13/11 A3011 RMK AO2 SLP201 T01330111

METAR Board
Radar Display
Forecast Discussion
For situational awareness. Not to be used for flight planning purposes.